NOR263 ENQD-ENBR
Flight info
| Callsign | NOR263 |
|---|---|
| Flight time | 0h 34m |
| Altitude | 3000 |
| Route | VENIN 2B ILS Y17 |
| Aircraft | A139/L-SDG/S |
Departure
| Time | 2026-05-06 18:05 |
|---|---|
| Airport | Brage A Platform (ENQD) |
Arrival
| Time | 2026-05-06 18:40 |
|---|---|
| Airport | Bergen Airport, Flesland (ENBR) |
| Time | Latitude | Longitude | Altitude | Speed | Heading |
|---|---|---|---|---|---|
| 2026-05-06 17:45 | 60.54194 | 3.04583 | 152 ft | 0 kts | 360° |
| 2026-05-06 18:04 | 60.54195 | 3.04583 | 152 ft | 0 kts | 328° |
| 2026-05-06 18:05 | 60.54194 | 3.04581 | 152 ft | 0 kts | 246° |
| 2026-05-06 18:05 | 60.54169 | 3.04596 | 211 ft | 23 kts | 255° |
| 2026-05-06 18:05 | 60.53842 | 3.04283 | 404 ft | 75 kts | 233° |
| 2026-05-06 18:05 | 60.53454 | 3.03558 | 864 ft | 77 kts | 233° |
| 2026-05-06 18:06 | 60.53178 | 3.02645 | 1166 ft | 78 kts | 254° |
| 2026-05-06 18:06 | 60.53196 | 3.01590 | 1428 ft | 82 kts | 290° |
| 2026-05-06 18:06 | 60.53686 | 3.00940 | 1681 ft | 94 kts | 339° |
| 2026-05-06 18:06 | 60.54334 | 3.01299 | 1935 ft | 105 kts | 27° |
| 2026-05-06 18:07 | 60.54711 | 3.02582 | 2182 ft | 111 kts | 77° |
| 2026-05-06 18:07 | 60.54605 | 3.04140 | 2400 ft | 116 kts | 105° |
| 2026-05-06 18:07 | 60.54442 | 3.05839 | 2596 ft | 128 kts | 101° |
| 2026-05-06 18:07 | 60.54344 | 3.07721 | 2790 ft | 141 kts | 94° |
| 2026-05-06 18:08 | 60.54290 | 3.09724 | 3042 ft | 143 kts | 85° |
| 2026-05-06 18:08 | 60.54287 | 3.11769 | 3041 ft | 146 kts | 81° |
| 2026-05-06 18:08 | 60.54298 | 3.13838 | 3036 ft | 147 kts | 81° |
| 2026-05-06 18:08 | 60.54307 | 3.15907 | 3034 ft | 147 kts | 81° |
| 2026-05-06 18:09 | 60.54314 | 3.17962 | 3025 ft | 146 kts | 82° |
| 2026-05-06 18:09 | 60.54320 | 3.20042 | 3019 ft | 146 kts | 82° |
| 2026-05-06 18:09 | 60.54326 | 3.22094 | 3002 ft | 147 kts | 82° |
| 2026-05-06 18:09 | 60.54331 | 3.24149 | 3001 ft | 146 kts | 82° |
| 2026-05-06 18:10 | 60.54336 | 3.26210 | 3009 ft | 146 kts | 82° |
| 2026-05-06 18:10 | 60.54341 | 3.28300 | 3011 ft | 146 kts | 82° |
| 2026-05-06 18:10 | 60.54345 | 3.30358 | 3016 ft | 146 kts | 82° |
| 2026-05-06 18:10 | 60.54350 | 3.32420 | 3009 ft | 146 kts | 82° |
| 2026-05-06 18:11 | 60.54354 | 3.34475 | 3009 ft | 146 kts | 82° |
| 2026-05-06 18:11 | 60.54357 | 3.36558 | 3010 ft | 146 kts | 82° |
| 2026-05-06 18:11 | 60.54361 | 3.38618 | 3011 ft | 146 kts | 82° |
| 2026-05-06 18:11 | 60.54364 | 3.40672 | 3008 ft | 146 kts | 82° |
| 2026-05-06 18:12 | 60.54366 | 3.42754 | 3004 ft | 146 kts | 82° |
| 2026-05-06 18:12 | 60.54368 | 3.44787 | 3017 ft | 145 kts | 81° |
| 2026-05-06 18:12 | 60.54371 | 3.46849 | 3018 ft | 145 kts | 81° |
| 2026-05-06 18:12 | 60.54373 | 3.48904 | 3015 ft | 145 kts | 81° |
| 2026-05-06 18:13 | 60.54375 | 3.50956 | 3007 ft | 145 kts | 82° |
| 2026-05-06 18:13 | 60.54376 | 3.52991 | 3008 ft | 145 kts | 82° |
| 2026-05-06 18:13 | 60.54377 | 3.55052 | 3014 ft | 145 kts | 82° |
| 2026-05-06 18:13 | 60.54377 | 3.57093 | 3013 ft | 145 kts | 82° |
| 2026-05-06 18:14 | 60.54377 | 3.59151 | 3015 ft | 145 kts | 82° |
| 2026-05-06 18:14 | 60.54378 | 3.61189 | 3011 ft | 145 kts | 82° |
| 2026-05-06 18:14 | 60.54377 | 3.63257 | 3011 ft | 145 kts | 82° |
| 2026-05-06 18:14 | 60.54375 | 3.65283 | 3016 ft | 145 kts | 83° |
| 2026-05-06 18:15 | 60.54374 | 3.67334 | 3009 ft | 145 kts | 82° |
| 2026-05-06 18:15 | 60.54373 | 3.69395 | 3010 ft | 145 kts | 82° |
| 2026-05-06 18:15 | 60.54371 | 3.71426 | 3016 ft | 145 kts | 82° |
| 2026-05-06 18:15 | 60.54370 | 3.73481 | 3013 ft | 145 kts | 82° |
| 2026-05-06 18:16 | 60.54368 | 3.75517 | 3018 ft | 145 kts | 82° |
| 2026-05-06 18:16 | 60.54365 | 3.77555 | 3017 ft | 144 kts | 82° |
| 2026-05-06 18:16 | 60.54362 | 3.79613 | 3011 ft | 145 kts | 82° |
| 2026-05-06 18:16 | 60.54359 | 3.81635 | 3008 ft | 145 kts | 82° |
| 2026-05-06 18:17 | 60.54356 | 3.83680 | 3007 ft | 145 kts | 82° |
| 2026-05-06 18:17 | 60.54352 | 3.85712 | 3010 ft | 145 kts | 82° |
| 2026-05-06 18:17 | 60.54348 | 3.87770 | 3006 ft | 145 kts | 82° |
| 2026-05-06 18:17 | 60.54344 | 3.89796 | 3007 ft | 145 kts | 83° |
| 2026-05-06 18:18 | 60.54339 | 3.91850 | 3008 ft | 145 kts | 83° |
| 2026-05-06 18:18 | 60.54334 | 3.93912 | 3016 ft | 145 kts | 83° |
| 2026-05-06 18:18 | 60.54328 | 3.95940 | 3018 ft | 144 kts | 83° |
| 2026-05-06 18:18 | 60.54321 | 3.97984 | 3016 ft | 144 kts | 83° |
| 2026-05-06 18:19 | 60.54316 | 3.99993 | 3014 ft | 144 kts | 82° |
| 2026-05-06 18:19 | 60.54309 | 4.02049 | 3007 ft | 145 kts | 82° |
| 2026-05-06 18:19 | 60.54302 | 4.04084 | 3011 ft | 144 kts | 82° |
| 2026-05-06 18:19 | 60.54295 | 4.06116 | 3016 ft | 144 kts | 82° |
| 2026-05-06 18:20 | 60.54288 | 4.08151 | 3014 ft | 144 kts | 82° |
| 2026-05-06 18:20 | 60.54281 | 4.10179 | 3013 ft | 143 kts | 82° |
| 2026-05-06 18:20 | 60.54274 | 4.12208 | 3008 ft | 143 kts | 82° |
| 2026-05-06 18:20 | 60.54266 | 4.14235 | 3009 ft | 144 kts | 82° |
| 2026-05-06 18:21 | 60.54258 | 4.16254 | 3016 ft | 143 kts | 82° |
| 2026-05-06 18:21 | 60.54250 | 4.18274 | 3011 ft | 143 kts | 83° |
| 2026-05-06 18:21 | 60.54076 | 4.20270 | 3027 ft | 143 kts | 97° |
| 2026-05-06 18:21 | 60.53832 | 4.22225 | 3015 ft | 142 kts | 97° |
| 2026-05-06 18:22 | 60.53592 | 4.24159 | 3000 ft | 143 kts | 97° |
| 2026-05-06 18:22 | 60.53349 | 4.26112 | 2993 ft | 144 kts | 97° |
| 2026-05-06 18:22 | 60.53101 | 4.28082 | 3007 ft | 143 kts | 97° |
| 2026-05-06 18:22 | 60.52856 | 4.30037 | 3012 ft | 143 kts | 97° |
| 2026-05-06 18:23 | 60.52608 | 4.32005 | 3011 ft | 144 kts | 97° |
| 2026-05-06 18:23 | 60.52362 | 4.33951 | 3016 ft | 143 kts | 96° |
| 2026-05-06 18:23 | 60.52113 | 4.35922 | 3013 ft | 144 kts | 96° |
| 2026-05-06 18:23 | 60.51865 | 4.37880 | 3021 ft | 143 kts | 96° |
| 2026-05-06 18:24 | 60.51618 | 4.39821 | 3020 ft | 142 kts | 96° |
| 2026-05-06 18:24 | 60.51369 | 4.41779 | 3018 ft | 142 kts | 96° |
| 2026-05-06 18:24 | 60.51121 | 4.43726 | 3008 ft | 143 kts | 96° |
| 2026-05-06 18:24 | 60.50874 | 4.45669 | 3007 ft | 143 kts | 97° |
| 2026-05-06 18:25 | 60.50624 | 4.47626 | 3010 ft | 143 kts | 97° |
| 2026-05-06 18:25 | 60.50376 | 4.49564 | 3014 ft | 143 kts | 97° |
| 2026-05-06 18:25 | 60.50124 | 4.51526 | 3012 ft | 143 kts | 97° |
| 2026-05-06 18:25 | 60.49875 | 4.53463 | 3013 ft | 143 kts | 97° |
| 2026-05-06 18:26 | 60.49645 | 4.55421 | 3001 ft | 144 kts | 96° |
| 2026-05-06 18:26 | 60.49386 | 4.57352 | 3026 ft | 142 kts | 97° |
| 2026-05-06 18:26 | 60.49131 | 4.59283 | 3027 ft | 142 kts | 96° |
| 2026-05-06 18:26 | 60.48880 | 4.61220 | 3025 ft | 142 kts | 96° |
| 2026-05-06 18:27 | 60.48628 | 4.63155 | 3042 ft | 141 kts | 96° |
| 2026-05-06 18:27 | 60.48381 | 4.65036 | 3089 ft | 133 kts | 96° |
| 2026-05-06 18:27 | 60.48151 | 4.66796 | 3100 ft | 124 kts | 95° |
| 2026-05-06 18:27 | 60.47941 | 4.68409 | 3064 ft | 116 kts | 93° |
| 2026-05-06 18:28 | 60.47742 | 4.69967 | 3008 ft | 113 kts | 94° |
| 2026-05-06 18:28 | 60.47545 | 4.71503 | 2987 ft | 113 kts | 95° |
| 2026-05-06 18:28 | 60.47345 | 4.73044 | 2990 ft | 113 kts | 95° |
| 2026-05-06 18:28 | 60.47146 | 4.74567 | 3003 ft | 113 kts | 95° |
| 2026-05-06 18:29 | 60.46944 | 4.76115 | 3013 ft | 113 kts | 95° |
| 2026-05-06 18:29 | 60.46742 | 4.77654 | 3015 ft | 113 kts | 95° |
| 2026-05-06 18:29 | 60.46540 | 4.79205 | 3009 ft | 114 kts | 94° |
| 2026-05-06 18:29 | 60.46336 | 4.80765 | 3010 ft | 113 kts | 94° |
| 2026-05-06 18:30 | 60.46138 | 4.82263 | 3050 ft | 106 kts | 93° |
| 2026-05-06 18:30 | 60.45953 | 4.83643 | 3053 ft | 97 kts | 91° |
| 2026-05-06 18:30 | 60.45788 | 4.84924 | 3001 ft | 94 kts | 91° |
| 2026-05-06 18:30 | 60.45625 | 4.86195 | 2974 ft | 92 kts | 92° |
| 2026-05-06 18:31 | 60.45460 | 4.87465 | 2972 ft | 92 kts | 93° |
| 2026-05-06 18:31 | 60.45298 | 4.88698 | 2977 ft | 91 kts | 93° |
| 2026-05-06 18:31 | 60.45132 | 4.89959 | 2984 ft | 91 kts | 93° |
| 2026-05-06 18:31 | 60.44968 | 4.91204 | 2987 ft | 92 kts | 92° |
| 2026-05-06 18:32 | 60.44801 | 4.92467 | 2947 ft | 95 kts | 91° |
| 2026-05-06 18:32 | 60.44627 | 4.93823 | 2767 ft | 107 kts | 92° |
| 2026-05-06 18:32 | 60.44431 | 4.95389 | 2544 ft | 124 kts | 95° |
| 2026-05-06 18:32 | 60.44198 | 4.97148 | 2418 ft | 131 kts | 95° |
| 2026-05-06 18:33 | 60.43959 | 4.98928 | 2310 ft | 132 kts | 95° |
| 2026-05-06 18:33 | 60.43751 | 5.00719 | 2203 ft | 129 kts | 85° |
| 2026-05-06 18:33 | 60.43594 | 5.02528 | 2042 ft | 131 kts | 90° |
| 2026-05-06 18:33 | 60.43424 | 5.04341 | 1970 ft | 129 kts | 91° |
| 2026-05-06 18:34 | 60.43258 | 5.06114 | 1959 ft | 129 kts | 91° |
| 2026-05-06 18:34 | 60.43096 | 5.07908 | 1967 ft | 128 kts | 91° |
| 2026-05-06 18:34 | 60.42936 | 5.09684 | 1980 ft | 128 kts | 91° |
| 2026-05-06 18:34 | 60.42777 | 5.11457 | 1990 ft | 128 kts | 90° |
| 2026-05-06 18:35 | 60.42619 | 5.13238 | 1993 ft | 129 kts | 90° |
| 2026-05-06 18:35 | 60.42459 | 5.15032 | 2001 ft | 129 kts | 90° |
| 2026-05-06 18:35 | 60.42141 | 5.16739 | 1957 ft | 135 kts | 123° |
| 2026-05-06 18:35 | 60.41340 | 5.17591 | 2061 ft | 126 kts | 158° |
| 2026-05-06 18:36 | 60.40492 | 5.17964 | 2005 ft | 125 kts | 160° |
| 2026-05-06 18:36 | 60.39634 | 5.18310 | 1977 ft | 126 kts | 161° |
| 2026-05-06 18:36 | 60.38778 | 5.18644 | 1905 ft | 124 kts | 162° |
| 2026-05-06 18:36 | 60.37933 | 5.18927 | 1731 ft | 121 kts | 161° |
| 2026-05-06 18:37 | 60.37112 | 5.19202 | 1573 ft | 118 kts | 160° |
| 2026-05-06 18:37 | 60.36322 | 5.19467 | 1421 ft | 114 kts | 160° |
| 2026-05-06 18:37 | 60.35561 | 5.19724 | 1285 ft | 105 kts | 160° |
| 2026-05-06 18:37 | 60.34877 | 5.19949 | 1167 ft | 93 kts | 159° |
| 2026-05-06 18:38 | 60.34279 | 5.20159 | 1024 ft | 85 kts | 160° |
| 2026-05-06 18:38 | 60.33702 | 5.20348 | 876 ft | 82 kts | 160° |
| 2026-05-06 18:38 | 60.33144 | 5.20535 | 759 ft | 80 kts | 161° |
| 2026-05-06 18:38 | 60.32601 | 5.20725 | 644 ft | 78 kts | 162° |
| 2026-05-06 18:39 | 60.32079 | 5.20893 | 542 ft | 76 kts | 162° |
| 2026-05-06 18:39 | 60.31565 | 5.21069 | 441 ft | 73 kts | 164° |
| 2026-05-06 18:39 | 60.31076 | 5.21232 | 338 ft | 70 kts | 164° |
| 2026-05-06 18:40 | 60.30216 | 5.21533 | 183 ft | 42 kts | 180° |
| 2026-05-06 18:40 | 60.30009 | 5.21555 | 147 ft | 16 kts | 151° |
| 2026-05-06 18:40 | 60.29930 | 5.21611 | 144 ft | 8 kts | 164° |
| 2026-05-06 18:40 | 60.29840 | 5.21644 | 142 ft | 24 kts | 170° |
| 2026-05-06 18:41 | 60.29714 | 5.21760 | 141 ft | 3 kts | 115° |
| 2026-05-06 18:41 | 60.29711 | 5.21842 | 143 ft | 13 kts | 84° |
| 2026-05-06 18:41 | 60.29718 | 5.22091 | 148 ft | 12 kts | 78° |